Time;durP1;ratioP1;P1;durP2;ratioP2;P2;SDS_P1;SDS_P2;PMS_P1;PMS_P2;Temp;Humidity;BMP_temperature;BMP_pressure;BME280_temperature;BME280_humidity;BME280_pressure;Samples;Min_cycle;Max_cycle;Signal;HPM_P1;HPM_P2
2022/04/29 00:01:57;;;;;;;1.02;0.77;;;;;;;-148.56;100.00;61375.16;4976993;28;20533;-29
2022/04/29 00:04:23;;;;;;;2.47;1.00;;;;;;;-148.56;100.00;61375.16;4998489;28;20427;-31
2022/04/29 00:06:49;;;;;;;2.05;0.70;;;;;;;-148.56;100.00;61375.16;4996393;28;20046;-29
2022/04/29 00:09:15;;;;;;;0.95;0.70;;;;;;;-148.56;100.00;61375.16;4998452;28;20505;-32
2022/04/29 00:11:40;;;;;;;1.05;0.60;;;;;;;-148.56;100.00;61375.16;4990162;28;20717;-38
2022/04/29 00:14:06;;;;;;;1.85;0.80;;;;;;;-148.56;100.00;61375.16;4991704;28;20032;-29
2022/04/29 00:16:31;;;;;;;1.15;0.80;;;;;;;-148.56;100.00;61375.16;4993214;28;20732;-34
2022/04/29 00:18:56;;;;;;;1.45;0.88;;;;;;;-148.56;100.00;61375.16;4997368;28;20043;-30
2022/04/29 00:21:23;;;;;;;1.77;0.82;;;;;;;-148.56;100.00;61375.16;4997028;28;20675;-30
2022/04/29 00:23:48;;;;;;;0.70;0.70;;;;;;;-148.56;100.00;61375.16;5040949;28;20032;-29
2022/04/29 00:26:14;;;;;;;0.77;0.77;;;;;;;-148.56;100.00;61375.16;5045073;28;20071;-29
2022/04/29 00:28:39;;;;;;;0.95;0.68;;;;;;;-148.56;100.00;61375.16;5042555;28;20586;-30
2022/04/29 00:31:05;;;;;;;0.80;0.80;;;;;;;-148.56;100.00;61375.16;5042531;28;20028;-28
2022/04/29 00:33:30;;;;;;;1.55;0.82;;;;;;;-148.56;100.00;61375.16;5041213;28;20028;-30
2022/04/29 00:35:55;;;;;;;1.52;0.70;;;;;;;-148.56;100.00;61375.16;5042556;28;20857;-29
2022/04/29 00:38:21;;;;;;;1.05;0.90;;;;;;;-148.56;100.00;61375.16;5043629;28;20032;-29
2022/04/29 00:40:46;;;;;;;1.40;0.70;;;;;;;-148.56;100.00;61375.16;5039290;28;20024;-31
2022/04/29 00:43:12;;;;;;;1.67;0.85;;;;;;;-148.56;100.00;61375.16;5004138;28;20040;-31
2022/04/29 00:45:38;;;;;;;0.70;0.70;;;;;;;-148.56;100.00;61375.16;5037169;28;20032;-29
2022/04/29 00:48:03;;;;;;;1.25;0.90;;;;;;;-148.56;100.00;61375.16;5041853;28;20727;-28
2022/04/29 00:50:29;;;;;;;2.72;0.80;;;;;;;-148.56;100.00;61375.16;5026888;28;20880;-29
2022/04/29 00:52:56;;;;;;;2.80;1.00;;;;;;;-148.56;100.00;61375.16;5045002;28;20036;-30
2022/04/29 00:55:22;;;;;;;1.65;0.90;;;;;;;-148.56;100.00;61375.16;5047880;28;20048;-30
2022/04/29 00:57:50;;;;;;;2.35;0.90;;;;;;;-148.56;100.00;61375.16;5044468;28;20450;-29
2022/04/29 01:00:18;;;;;;;0.70;0.70;;;;;;;-148.56;100.00;61375.16;5042991;28;20406;-30
2022/04/29 01:02:47;;;;;;;0.77;0.70;;;;;;;-148.56;100.00;61375.16;5039878;28;20036;-31
2022/04/29 01:05:18;;;;;;;0.80;0.80;;;;;;;-148.56;100.00;61375.16;5019851;28;20024;-31
2022/04/29 01:07:44;;;;;;;1.20;1.02;;;;;;;-148.56;100.00;61375.16;5034920;28;20103;-31
2022/04/29 01:10:12;;;;;;;1.38;1.00;;;;;;;-148.56;100.00;61375.16;5042841;28;20107;-32
2022/04/29 01:12:38;;;;;;;0.68;0.68;;;;;;;-148.56;100.00;61375.16;5033510;28;20064;-30
2022/04/29 01:15:08;;;;;;;0.90;0.80;;;;;;;-148.56;100.00;61375.16;5043867;28;20024;-30
2022/04/29 01:17:35;;;;;;;1.08;0.75;;;;;;;-148.56;100.00;61375.16;5043939;28;20040;-30
2022/04/29 01:20:07;;;;;;;1.70;0.80;;;;;;;-148.56;100.00;61375.16;5045102;28;20039;-31
2022/04/29 01:22:33;;;;;;;1.38;0.98;;;;;;;-148.56;100.00;61375.16;5030165;28;20051;-31
2022/04/29 01:24:58;;;;;;;1.92;0.77;;;;;;;-148.56;100.00;61375.16;5042078;28;20024;-29
2022/04/29 01:27:24;;;;;;;1.65;0.80;;;;;;;-148.56;100.00;61375.16;5037681;28;20475;-32
2022/04/29 01:29:57;;;;;;;1.00;0.73;;;;;;;-148.56;100.00;61375.16;5039880;28;20059;-30
2022/04/29 01:32:22;;;;;;;1.00;0.90;;;;;;;-148.56;100.00;61375.16;5019992;28;20031;-31
2022/04/29 01:34:48;;;;;;;2.95;0.70;;;;;;;-148.56;100.00;61375.16;5019528;28;20033;-32
2022/04/29 01:37:13;;;;;;;0.90;0.77;;;;;;;-148.56;100.00;61375.16;5043786;28;20562;-31
2022/04/29 01:39:38;;;;;;;2.25;0.80;;;;;;;-148.56;100.00;61375.16;5040428;28;20028;-29
2022/04/29 01:42:04;;;;;;;1.05;0.77;;;;;;;-148.56;100.00;61375.16;5040749;28;20596;-29
2022/04/29 01:44:30;;;;;;;0.75;0.65;;;;;;;-148.56;100.00;61375.16;5039101;28;20044;-31
2022/04/29 01:46:55;;;;;;;1.00;0.90;;;;;;;-148.56;100.00;61375.16;5044953;28;20247;-31
2022/04/29 01:49:20;;;;;;;1.00;0.77;;;;;;;-148.56;100.00;61375.16;5042156;28;20036;-31
2022/04/29 01:51:46;;;;;;;1.10;0.73;;;;;;;-148.56;100.00;61375.16;5048576;28;20433;-29
2022/04/29 01:54:11;;;;;;;0.90;0.63;;;;;;;-148.56;100.00;61375.16;5043243;28;20561;-29
2022/04/29 01:56:40;;;;;;;1.23;0.82;;;;;;;-148.56;100.00;61375.16;5035499;28;20040;-29
2022/04/29 01:59:06;;;;;;;0.60;0.60;;;;;;;-148.56;100.00;61375.16;5041147;28;20054;-32
2022/04/29 02:01:31;;;;;;;5.00;0.90;;;;;;;-148.56;100.00;61375.16;5029968;28;20092;-30
2022/04/29 02:03:58;;;;;;;1.38;0.80;;;;;;;-148.56;100.00;61375.16;5038490;28;20132;-30
2022/04/29 02:06:24;;;;;;;1.02;1.00;;;;;;;-148.56;100.00;61375.16;5029174;28;20041;-30
2022/04/29 02:08:49;;;;;;;0.75;0.75;;;;;;;-148.56;100.00;61375.16;5044391;28;20166;-31
2022/04/29 02:11:17;;;;;;;0.88;0.77;;;;;;;-148.56;100.00;61375.16;5041527;28;20024;-30
2022/04/29 02:13:44;;;;;;;2.17;0.60;;;;;;;-148.56;100.00;61375.16;5046169;28;20078;-31
2022/04/29 02:16:09;;;;;;;1.23;0.80;;;;;;;-148.56;100.00;61375.16;5044664;28;20152;-30
2022/04/29 02:18:34;;;;;;;0.90;0.68;;;;;;;-148.56;100.00;61375.16;5048759;28;20020;-33
2022/04/29 02:21:00;;;;;;;1.13;0.75;;;;;;;-148.56;100.00;61375.16;5049479;28;20148;-31
2022/04/29 02:23:25;;;;;;;1.05;0.73;;;;;;;-148.56;100.00;61375.16;5040066;28;20699;-31
2022/04/29 02:25:52;;;;;;;1.30;0.98;;;;;;;-148.56;100.00;61375.16;5042687;28;20032;-30
2022/04/29 02:28:17;;;;;;;0.70;0.70;;;;;;;-148.56;100.00;61375.16;5047618;28;20043;-31
2022/04/29 02:30:43;;;;;;;0.90;0.77;;;;;;;-148.56;100.00;61375.16;5045742;28;20028;-31
2022/04/29 02:33:08;;;;;;;1.20;0.80;;;;;;;-148.56;100.00;61375.16;5043547;28;20028;-30
2022/04/29 02:35:33;;;;;;;1.55;0.70;;;;;;;-148.56;100.00;61375.16;5044511;28;20032;-30
2022/04/29 02:37:59;;;;;;;3.00;0.90;;;;;;;-148.56;100.00;61375.16;5035509;28;20020;-31
2022/04/29 02:40:24;;;;;;;0.82;0.70;;;;;;;-148.56;100.00;61375.16;5043204;28;20090;-30
2022/04/29 02:42:50;;;;;;;1.48;0.70;;;;;;;-148.56;100.00;61375.16;5050585;28;20072;-29
2022/04/29 02:45:15;;;;;;;0.75;0.65;;;;;;;-148.56;100.00;61375.16;5047530;28;20021;-30
2022/04/29 02:47:41;;;;;;;0.90;0.80;;;;;;;-148.56;100.00;61375.16;5047162;28;20033;-31
2022/04/29 02:50:07;;;;;;;0.82;0.63;;;;;;;-148.56;100.00;61375.16;5040060;28;20051;-33
2022/04/29 02:52:32;;;;;;;3.30;1.10;;;;;;;-148.56;100.00;61375.16;5037409;28;20772;-31
2022/04/29 02:54:58;;;;;;;0.60;0.60;;;;;;;-148.56;100.00;61375.16;5045502;28;20036;-31
2022/04/29 02:57:23;;;;;;;0.82;0.65;;;;;;;-148.56;100.00;61375.16;5049009;28;20028;-31
2022/04/29 02:59:49;;;;;;;1.15;0.70;;;;;;;-148.56;100.00;61375.16;5041740;28;20064;-30
2022/04/29 03:02:14;;;;;;;0.70;0.70;;;;;;;-148.56;100.00;61375.16;5036723;28;20086;-32
2022/04/29 03:04:39;;;;;;;0.85;0.60;;;;;;;-148.56;100.00;61375.16;5046893;28;20144;-30
2022/04/29 03:07:05;;;;;;;2.00;0.80;;;;;;;-148.56;100.00;61375.16;5046059;28;20499;-31
2022/04/29 03:09:31;;;;;;;0.75;0.75;;;;;;;-148.56;100.00;61375.16;5040019;28;20082;-30
2022/04/29 03:11:56;;;;;;;0.82;0.80;;;;;;;-148.56;100.00;61375.16;5037862;28;20542;-30
2022/04/29 03:14:22;;;;;;;1.42;0.90;;;;;;;-148.56;100.00;61375.16;5045129;28;20031;-29
2022/04/29 03:16:47;;;;;;;0.63;0.63;;;;;;;-148.56;100.00;61375.16;5042232;28;20146;-29
2022/04/29 03:19:13;;;;;;;0.63;0.60;;;;;;;-148.56;100.00;61375.16;5040764;28;20028;-31
2022/04/29 03:21:38;;;;;;;0.80;0.80;;;;;;;-148.56;100.00;61375.16;5043218;28;20029;-33
2022/04/29 03:24:04;;;;;;;0.63;0.60;;;;;;;-148.56;100.00;61375.16;5046380;28;20026;-31
2022/04/29 03:26:30;;;;;;;1.20;0.80;;;;;;;-148.56;100.00;61375.16;5047663;28;20024;-33
2022/04/29 03:28:56;;;;;;;1.17;0.80;;;;;;;-148.56;100.00;61375.16;5045071;28;20028;-32
2022/04/29 03:31:21;;;;;;;1.38;0.70;;;;;;;-148.56;100.00;61375.16;5047517;28;20036;-29
2022/04/29 03:33:47;;;;;;;1.27;0.80;;;;;;;-148.56;100.00;61375.16;5043744;28;20036;-30
2022/04/29 03:36:14;;;;;;;0.70;0.70;;;;;;;-148.56;100.00;61375.16;5045950;28;20028;-30
2022/04/29 03:38:39;;;;;;;0.70;0.70;;;;;;;26.71;28.09;97453.75;5042803;28;20032;-31
2022/04/29 03:41:05;;;;;;;1.27;0.88;;;;;;;26.72;28.13;97455.47;5045402;28;20078;-32
2022/04/29 03:43:30;;;;;;;1.00;0.80;;;;;;;26.71;28.07;97461.66;5023702;28;20025;-31
2022/04/29 03:45:56;;;;;;;0.80;0.73;;;;;;;26.70;28.16;97455.53;5049767;28;20032;-33
2022/04/29 03:48:21;;;;;;;1.17;0.63;;;;;;;26.70;28.10;97454.69;5043089;28;20090;-31
2022/04/29 03:50:47;;;;;;;2.70;0.70;;;;;;;26.71;28.04;97452.00;5045034;28;20098;-31
2022/04/29 03:53:13;;;;;;;0.73;0.63;;;;;;;26.71;28.22;97456.41;5043571;28;20046;-31
2022/04/29 03:55:38;;;;;;;0.65;0.60;;;;;;;26.69;28.07;97439.84;5038558;28;20040;-30
2022/04/29 03:58:04;;;;;;;0.63;0.60;;;;;;;26.68;28.03;97451.28;5040101;28;20020;-30
2022/04/29 04:00:31;;;;;;;1.60;0.80;;;;;;;26.70;28.04;97449.44;5017215;28;20534;-32
2022/04/29 04:02:57;;;;;;;0.57;0.40;;;;;;;26.69;28.06;97453.00;5041002;28;20060;-30
2022/04/29 04:05:23;;;;;;;0.70;0.60;;;;;;;26.69;28.09;97455.63;5044215;28;20412;-31
2022/04/29 04:07:48;;;;;;;0.75;0.60;;;;;;;26.68;28.03;97457.38;5043775;28;20032;-29
2022/04/29 04:10:14;;;;;;;0.98;0.60;;;;;;;26.66;28.22;97447.88;5046849;28;20697;-30
2022/04/29 04:12:46;;;;;;;1.10;0.80;;;;;;;26.68;28.05;97452.13;5049515;28;20028;-30
2022/04/29 04:15:12;;;;;;;0.93;0.70;;;;;;;26.68;28.24;97456.53;5039003;28;20773;-33
2022/04/29 04:17:37;;;;;;;0.70;0.70;;;;;;;26.69;28.05;97468.78;5041279;28;20031;-29
2022/04/29 04:20:04;;;;;;;0.85;0.70;;;;;;;26.68;28.10;97467.03;5038672;28;20033;-31
2022/04/29 04:22:30;;;;;;;1.10;0.75;;;;;;;26.68;28.04;97472.31;5048078;28;20071;-29
2022/04/29 04:24:58;;;;;;;1.67;0.75;;;;;;;26.68;28.04;97477.56;5030261;28;20748;-29
2022/04/29 04:27:23;;;;;;;0.95;0.60;;;;;;;26.67;28.16;97481.97;5043517;28;20039;-29
2022/04/29 04:29:48;;;;;;;1.38;0.80;;;;;;;26.67;28.04;97471.47;5043181;28;20036;-30
2022/04/29 04:32:14;;;;;;;0.60;0.60;;;;;;;26.67;28.16;97475.84;5047880;28;20467;-31
2022/04/29 04:34:52;;;;;;;1.65;0.80;;;;;;;26.68;28.11;97477.56;5049673;28;20055;-30
2022/04/29 04:37:21;;;;;;;0.55;0.50;;;;;;;26.67;28.07;97491.63;5044400;28;20024;-31
2022/04/29 04:39:47;;;;;;;0.60;0.60;;;;;;;26.66;28.14;97484.69;5045764;28;20020;-32
2022/04/29 04:42:12;;;;;;;0.75;0.70;;;;;;;26.66;28.08;97485.50;5046191;28;20028;-31
2022/04/29 04:44:38;;;;;;;1.40;0.75;;;;;;;26.65;28.06;97477.72;5048354;28;20028;-30
2022/04/29 04:47:05;;;;;;;0.55;0.55;;;;;;;26.64;28.06;97478.63;5040234;28;20036;-31
2022/04/29 04:49:31;;;;;;;0.70;0.60;;;;;;;26.65;28.08;97482.97;5047148;28;20048;-29
2022/04/29 04:51:56;;;;;;;2.47;0.60;;;;;;;26.64;28.07;97484.75;5044470;28;20178;-30
2022/04/29 04:54:21;;;;;;;0.80;0.63;;;;;;;26.64;28.08;97484.75;5048247;28;20029;-30
2022/04/29 04:56:47;;;;;;;0.52;0.52;;;;;;;26.64;28.08;97487.38;5049368;28;20024;-35
2022/04/29 04:59:12;;;;;;;1.00;0.60;;;;;;;26.64;28.10;97482.13;5042428;28;20119;-30
2022/04/29 05:01:38;;;;;;;1.08;0.60;;;;;;;26.64;28.12;97483.88;5041847;28;20036;-32
2022/04/29 05:04:03;;;;;;;0.98;0.63;;;;;;;26.64;28.21;97486.50;5043693;28;21272;-30
2022/04/29 05:06:29;;;;;;;0.88;0.70;;;;;;;26.64;28.28;97478.63;5042559;28;20025;-29
2022/04/29 05:08:54;;;;;;;0.50;0.50;;;;;;;26.63;28.18;97488.31;5047014;28;20025;-29
2022/04/29 05:11:19;;;;;;;0.60;0.60;;;;;;;26.63;28.06;97484.81;5039056;28;20025;-30
2022/04/29 05:13:45;;;;;;;0.77;0.63;;;;;;;26.63;28.07;97488.31;5046881;28;20661;-31
2022/04/29 05:16:10;;;;;;;0.80;0.80;;;;;;;26.61;28.09;97488.38;5044114;28;20028;-28
2022/04/29 05:18:37;;;;;;;0.80;0.80;;;;;;;26.62;28.09;97489.22;5043667;28;20047;-31
2022/04/29 05:21:02;;;;;;;0.73;0.73;;;;;;;26.61;28.11;97498.88;5045346;28;20813;-30
2022/04/29 05:23:28;;;;;;;0.82;0.57;;;;;;;26.61;28.17;97498.88;5045958;28;20021;-30
2022/04/29 05:25:53;;;;;;;3.17;0.80;;;;;;;26.61;28.09;97496.25;5047504;28;20059;-31
2022/04/29 05:28:19;;;;;;;1.17;0.60;;;;;;;26.61;28.01;97503.28;5039766;28;20020;-31
2022/04/29 05:30:44;;;;;;;0.85;0.80;;;;;;;26.61;28.12;97509.41;5038428;28;20825;-33
2022/04/29 05:33:09;;;;;;;0.88;0.70;;;;;;;26.61;28.11;97504.13;5037794;28;20093;-33
2022/04/29 05:35:35;;;;;;;0.60;0.60;;;;;;;26.61;28.19;97503.28;5010340;28;20067;-30
2022/04/29 05:38:00;;;;;;;1.25;0.80;;;;;;;26.61;28.03;97503.28;5023329;28;20029;-28
2022/04/29 05:43:10;;;;;;;1.30;0.95;;;;;;;26.62;28.37;97505.00;5032057;28;20406;-30
2022/04/29 05:45:36;;;;;;;0.45;0.45;;;;;;;26.61;28.15;97501.50;5050485;28;20094;-31
2022/04/29 05:48:01;;;;;;;2.70;0.68;;;;;;;26.60;28.09;97502.44;5042581;28;20037;-32
2022/04/29 05:50:27;;;;;;;0.88;0.60;;;;;;;26.61;28.14;97505.91;5040872;28;20036;-30
2022/04/29 05:52:52;;;;;;;1.08;0.80;;;;;;;26.61;28.06;97503.28;5049623;28;20090;-30
2022/04/29 05:55:18;;;;;;;0.90;0.70;;;;;;;26.60;28.03;97502.44;5043703;28;20040;-30
2022/04/29 05:57:43;;;;;;;2.63;0.65;;;;;;;26.60;28.18;97502.44;5044692;28;20043;-31
2022/04/29 06:00:09;;;;;;;1.27;0.73;;;;;;;26.61;27.98;97505.91;5037730;28;20055;-27
2022/04/29 06:02:38;;;;;;;1.23;0.70;;;;;;;26.59;28.08;97505.97;5042620;28;20036;-31
2022/04/29 06:05:03;;;;;;;0.60;0.60;;;;;;;26.61;28.08;97503.28;5045120;28;20029;-30
2022/04/29 06:07:29;;;;;;;0.68;0.68;;;;;;;26.60;28.13;97496.31;5048689;28;20192;-29
2022/04/29 06:09:54;;;;;;;1.00;0.73;;;;;;;26.60;28.08;97502.44;5045454;28;20051;-29
2022/04/29 06:12:19;;;;;;;6.10;0.70;;;;;;;26.60;28.04;97502.44;5041197;28;20028;-32
2022/04/29 06:14:45;;;;;;;1.77;1.02;;;;;;;26.60;28.19;97502.44;5038892;28;22705;-31
2022/04/29 06:17:12;;;;;;;0.80;0.80;;;;;;;26.59;28.21;97508.59;5045668;28;20028;-32
2022/04/29 06:19:37;;;;;;;1.90;1.00;;;;;;;26.60;28.07;97502.44;5043143;28;20024;-31
2022/04/29 06:22:04;;;;;;;3.10;1.10;;;;;;;26.60;28.07;97506.84;5041824;28;20032;-32
2022/04/29 06:24:30;;;;;;;2.88;1.00;;;;;;;26.62;28.12;97505.00;5043679;28;20036;-33
2022/04/29 06:26:55;;;;;;;2.20;1.15;;;;;;;26.61;28.14;97509.41;5033702;28;20915;-31
2022/04/29 06:29:21;;;;;;;4.05;1.00;;;;;;;26.63;28.02;97511.09;5036394;28;20040;-32
2022/04/29 06:31:46;;;;;;;4.03;1.20;;;;;;;26.64;28.04;97515.44;5035771;28;21039;-31
2022/04/29 06:34:11;;;;;;;5.05;1.30;;;;;;;26.64;28.37;97511.03;5035545;28;20407;-30
2022/04/29 06:36:37;;;;;;;14.35;1.80;;;;;;;26.65;28.12;97504.00;5042241;28;20049;-30
2022/04/29 06:39:02;;;;;;;7.85;2.35;;;;;;;26.66;28.00;97513.59;5040641;28;22343;-30
2022/04/29 06:41:28;;;;;;;5.45;2.30;;;;;;;26.67;28.17;97513.53;5041321;28;20793;-30
2022/04/29 06:43:53;;;;;;;3.83;1.88;;;;;;;26.67;28.07;97518.78;5035140;28;20036;-30
2022/04/29 06:46:24;;;;;;;5.55;2.40;;;;;;;26.68;28.15;97509.09;5034710;28;20024;-30
2022/04/29 06:48:50;;;;;;;8.02;2.70;;;;;;;26.68;28.14;97506.47;5033216;28;20033;-30
2022/04/29 06:51:15;;;;;;;5.00;2.38;;;;;;;26.69;28.08;97508.22;5038860;28;20450;-31
2022/04/29 06:53:40;;;;;;;8.57;2.45;;;;;;;26.70;28.02;97509.91;5032937;28;20386;-30
2022/04/29 06:56:06;;;;;;;6.07;2.60;;;;;;;26.71;28.08;97503.72;5040270;28;20037;-32
2022/04/29 06:58:32;;;;;;;8.35;2.70;;;;;;;26.71;28.11;97503.72;5038849;28;20041;-30
2022/04/29 07:00:57;;;;;;;4.90;2.67;;;;;;;26.72;28.08;97500.16;5040218;28;20133;-30
2022/04/29 07:03:23;;;;;;;6.80;2.85;;;;;;;26.73;27.95;97501.84;5036600;28;20483;-32
2022/04/29 07:05:50;;;;;;;7.82;3.10;;;;;;;26.73;27.91;97502.72;5040405;28;20532;-30
2022/04/29 07:08:16;;;;;;;7.88;3.40;;;;;;;26.74;28.04;97503.59;5038958;28;20330;-31
2022/04/29 07:10:42;;;;;;;10.07;2.85;;;;;;;26.74;28.11;97499.16;5038617;28;20971;-30
2022/04/29 07:13:09;;;;;;;8.13;2.88;;;;;;;26.76;28.12;97501.72;5041231;28;20538;-30
2022/04/29 07:15:34;;;;;;;6.20;2.90;;;;;;;26.77;28.04;97497.34;5040498;28;20047;-30
2022/04/29 07:17:59;;;;;;;7.20;2.78;;;;;;;26.76;28.03;97485.94;5036117;28;20911;-31
2022/04/29 07:20:25;;;;;;;7.25;3.00;;;;;;;26.77;28.10;97485.03;5039181;28;20025;-32
2022/04/29 07:22:50;;;;;;;8.40;2.85;;;;;;;26.77;27.97;97487.66;5038091;28;20034;-31
2022/04/29 07:25:16;;;;;;;7.30;2.92;;;;;;;26.78;28.08;97478.88;5040078;28;20047;-30
2022/04/29 07:27:41;;;;;;;5.28;2.20;;;;;;;26.79;28.02;97480.56;5040472;28;20267;-30
2022/04/29 07:30:08;;;;;;;5.95;2.72;;;;;;;26.80;27.97;97482.25;5039200;28;20795;-31
2022/04/29 07:32:33;;;;;;;6.32;3.20;;;;;;;26.80;27.98;97474.38;5039784;28;20028;-30
2022/04/29 07:43:11;;;;;;;5.72;3.65;;;;;;;26.82;27.66;97472.53;5039388;28;20125;-30
2022/04/29 07:45:38;;;;;;;9.95;3.58;;;;;;;26.82;27.43;97469.91;5037705;28;20029;-29
2022/04/29 07:48:05;;;;;;;5.22;2.90;;;;;;;26.82;27.44;97475.16;5039055;28;20021;-31
2022/04/29 07:50:31;;;;;;;5.25;2.78;;;;;;;26.83;27.60;97470.75;5037694;28;20442;-30
2022/04/29 07:53:00;;;;;;;4.57;2.60;;;;;;;26.83;27.73;97470.75;5034485;28;20114;-30
2022/04/29 07:55:25;;;;;;;5.78;2.65;;;;;;;26.84;27.95;97475.06;5039551;28;20029;-31
2022/04/29 07:57:51;;;;;;;4.72;2.50;;;;;;;26.85;27.67;97474.16;5036951;28;20040;-29
2022/04/29 08:00:17;;;;;;;4.63;2.40;;;;;;;26.86;27.82;97468.81;5035699;28;20028;-32
2022/04/29 08:02:42;;;;;;;7.60;2.45;;;;;;;26.87;27.76;97470.53;5037856;28;20577;-30
2022/04/29 08:05:08;;;;;;;6.75;2.60;;;;;;;26.88;27.81;97474.88;5044416;28;20028;-29
2022/04/29 08:07:33;;;;;;;5.95;2.55;;;;;;;26.90;27.89;97471.31;5051054;28;20024;-30
2022/04/29 08:09:59;;;;;;;3.97;2.13;;;;;;;26.90;27.81;97471.31;5049933;28;20028;-29
2022/04/29 08:12:26;;;;;;;8.00;2.50;;;;;;;26.91;27.94;97473.00;5051047;28;20566;-29
2022/04/29 08:14:52;;;;;;;3.85;2.22;;;;;;;26.90;27.92;97468.69;5050371;28;20032;-32
2022/04/29 08:17:18;;;;;;;5.45;2.33;;;;;;;26.92;27.84;97474.72;5053150;28;20048;-29
2022/04/29 08:19:44;;;;;;;4.50;2.40;;;;;;;26.92;28.04;97470.31;5046954;28;20487;-30
2022/04/29 08:22:09;;;;;;;6.55;4.32;;;;;;;26.91;25.08;97473.00;5037252;28;20513;-31
2022/04/29 08:24:34;;;;;;;11.07;5.70;;;;;;;26.84;25.67;97478.56;5038092;28;20037;-31
2022/04/29 08:27:00;;;;;;;9.35;6.05;;;;;;;26.77;24.86;97476.28;5043757;28;20025;-31
2022/04/29 08:29:26;;;;;;;7.47;5.07;;;;;;;26.66;24.22;97480.25;5037652;28;20767;-29
2022/04/29 08:31:52;;;;;;;10.50;5.45;;;;;;;26.56;24.25;97474.59;5041069;28;21071;-31
2022/04/29 08:34:17;;;;;;;9.10;4.90;;;;;;;26.48;24.10;97477.53;5041392;28;20036;-32
2022/04/29 08:36:43;;;;;;;7.55;4.07;;;;;;;26.41;24.18;97480.53;5037242;28;20487;-30
2022/04/29 08:39:09;;;;;;;7.38;3.90;;;;;;;26.37;23.78;97473.69;5035532;28;20033;-30
2022/04/29 08:41:36;;;;;;;8.65;3.40;;;;;;;26.34;23.87;97467.66;5037193;28;20040;-30
2022/04/29 08:44:02;;;;;;;7.50;3.58;;;;;;;26.33;23.93;97473.84;5034503;28;20082;-30
2022/04/29 08:46:27;;;;;;;4.97;3.30;;;;;;;26.34;23.79;97470.28;5019649;28;20657;-32
2022/04/29 08:48:53;;;;;;;8.50;4.13;;;;;;;26.34;23.57;97475.56;5030483;28;20024;-32
2022/04/29 08:51:18;;;;;;;8.75;3.30;;;;;;;26.34;23.55;97459.78;5028912;28;20041;-31
2022/04/29 08:53:44;;;;;;;8.65;3.25;;;;;;;26.35;23.42;97458.84;5027282;28;20064;-34
2022/04/29 08:58:53;;;;;;;5.95;3.22;;;;;;;26.40;23.24;97457.78;5031543;28;20040;-29
2022/04/29 09:01:21;;;;;;;6.28;3.30;;;;;;;26.41;23.23;97462.13;5026352;28;20024;-31
2022/04/29 09:03:46;;;;;;;5.25;2.90;;;;;;;26.41;23.34;97444.59;5014000;28;20041;-30
2022/04/29 09:06:12;;;;;;;6.45;2.83;;;;;;;26.45;23.28;97454.03;5026475;28;20082;-30
2022/04/29 09:08:42;;;;;;;8.98;3.10;;;;;;;26.46;23.19;97450.50;5030293;28;20025;-30
2022/04/29 09:11:07;;;;;;;4.50;2.90;;;;;;;26.48;23.04;97445.16;5030481;28;20025;-30
2022/04/29 09:13:35;;;;;;;6.78;2.80;;;;;;;26.50;23.08;97442.47;5039943;28;20033;-30
2022/04/29 09:16:10;;;;;;;8.52;2.80;;;;;;;26.52;23.22;97448.50;5031755;28;20500;-32
2022/04/29 09:18:37;;;;;;;4.45;2.47;;;;;;;26.53;23.16;97435.28;5011454;28;20033;-30
2022/04/29 09:21:07;;;;;;;5.50;2.50;;;;;;;26.54;23.08;97439.63;5029364;28;20562;-30
2022/04/29 09:23:35;;;;;;;6.75;2.20;;;;;;;26.56;23.13;97432.53;5034564;28;20028;-31
2022/04/29 09:26:03;;;;;;;3.58;2.17;;;;;;;26.59;23.30;97437.63;5028745;28;20128;-30
2022/04/29 09:28:29;;;;;;;6.88;2.65;;;;;;;26.60;23.20;97428.84;5029433;28;20036;-30
2022/04/29 09:30:56;;;;;;;10.75;2.67;;;;;;;26.63;23.19;97426.97;5047819;28;20290;-31
2022/04/29 09:33:23;;;;;;;4.85;2.60;;;;;;;26.64;23.24;97424.28;5029990;28;20032;-31
2022/04/29 09:35:51;;;;;;;6.97;2.08;;;;;;;26.66;23.46;97437.34;5039867;28;20063;-32
2022/04/29 09:41:01;;;;;;;8.10;2.25;;;;;;;-148.56;100.00;61375.16;5047337;28;20035;-27
2022/04/29 09:43:36;;;;;;;5.53;2.30;;;;;;;-148.56;100.00;61375.16;5024692;28;20068;-28
2022/04/29 09:46:13;;;;;;;4.20;2.50;;;;;;;-148.56;100.00;61375.16;5038221;28;20028;-29
2022/04/29 09:49:09;;;;;;;4.95;3.03;;;;;;;-148.56;100.00;61375.16;5035943;28;20512;-29
2022/04/29 09:51:59;;;;;;;3.88;2.80;;;;;;;-148.56;100.00;61375.16;5040850;28;21264;-29
2022/04/29 09:54:26;;;;;;;4.25;3.03;;;;;;;-148.56;100.00;61375.16;5026811;28;20081;-28
2022/04/29 09:57:18;;;;;;;12.00;3.60;;;;;;;-148.56;100.00;61375.16;5041608;28;20029;-28
2022/04/29 09:59:47;;;;;;;4.35;3.35;;;;;;;-148.56;100.00;61375.16;5046833;28;20032;-28
2022/04/29 10:02:13;;;;;;;8.20;3.42;;;;;;;-148.56;100.00;61375.16;5039347;28;20526;-29
2022/04/29 10:04:43;;;;;;;7.65;3.25;;;;;;;-148.56;100.00;61375.16;5040586;28;20037;-29
2022/04/29 10:07:09;;;;;;;6.15;3.33;;;;;;;-148.56;100.00;61375.16;5036979;28;20812;-28
2022/04/29 10:09:36;;;;;;;6.25;3.10;;;;;;;-148.56;100.00;61375.16;5036398;28;20043;-32
2022/04/29 10:12:03;;;;;;;4.00;2.80;;;;;;;-148.56;100.00;61375.16;5037147;28;20028;-30
2022/04/29 10:14:31;;;;;;;5.53;2.90;;;;;;;-148.56;100.00;61375.16;5041064;28;20029;-31
2022/04/29 10:22:44;;;;;;;9.57;2.65;;;;;;;-148.56;100.00;61375.16;5046805;28;20030;-30
2022/04/29 10:25:10;;;;;;;6.22;2.45;;;;;;;-148.56;100.00;61375.16;5027456;28;20021;-31
2022/04/29 10:27:39;;;;;;;80.40;11.43;;;;;;;-148.56;100.00;61375.16;5039085;28;20546;-30
2022/04/29 10:30:06;;;;;;;25.83;4.35;;;;;;;-148.56;100.00;61375.16;5024417;28;20028;-28
2022/04/29 10:32:52;;;;;;;19.38;4.38;;;;;;;-148.56;100.00;61375.16;5046448;28;20031;-28
2022/04/29 10:35:58;;;;;;;14.25;3.45;;;;;;;-148.56;100.00;61375.16;5026456;28;20039;-29
2022/04/29 10:38:24;;;;;;;12.32;3.45;;;;;;;-148.56;100.00;61375.16;4975381;28;20053;-28
2022/04/29 10:41:14;;;;;;;14.85;3.08;;;;;;;-148.56;100.00;61375.16;4976302;28;20048;-30
2022/04/29 10:43:52;;;;;;;11.45;3.10;;;;;;;-148.56;100.00;61375.16;5016090;28;20045;-29
2022/04/29 10:46:36;;;;;;;9.45;2.92;;;;;;;-148.56;100.00;61375.16;5037677;28;20033;-28
2022/04/29 10:49:21;;;;;;;8.30;3.00;;;;;;;-148.56;100.00;61375.16;5032315;28;20070;-30
2022/04/29 10:51:49;;;;;;;7.88;3.17;;;;;;;-148.56;100.00;61375.16;5036722;28;20036;-29
2022/04/29 10:54:14;;;;;;;7.47;2.90;;;;;;;-148.56;100.00;61375.16;5036648;28;20032;-30
2022/04/29 10:56:40;;;;;;;7.50;2.70;;;;;;;-148.56;100.00;61375.16;5037429;28;20433;-29
2022/04/29 10:59:12;;;;;;;6.53;2.80;;;;;;;-148.56;100.00;61375.16;5036808;28;20036;-29
2022/04/29 11:01:48;;;;;;;6.35;2.72;;;;;;;-148.56;100.00;61375.16;5037604;28;20033;-29
2022/04/29 11:04:16;;;;;;;8.05;2.80;;;;;;;-148.56;100.00;61375.16;5045262;28;20039;-29
2022/04/29 11:06:49;;;;;;;5.90;2.80;;;;;;;-148.56;100.00;61375.16;5044103;28;20238;-29
2022/04/29 11:09:28;;;;;;;8.13;2.40;;;;;;;-148.56;100.00;61375.16;5040249;28;20036;-29
2022/04/29 11:11:54;;;;;;;9.45;2.47;;;;;;;-148.56;100.00;61375.16;5038598;28;20052;-30
2022/04/29 11:14:19;;;;;;;4.65;2.00;;;;;;;-148.56;100.00;61375.16;5044766;28;20761;-30
2022/04/29 11:17:06;;;;;;;5.30;2.00;;;;;;;-148.56;100.00;61375.16;5050972;28;20054;-29
2022/04/29 11:19:35;;;;;;;5.05;2.10;;;;;;;-148.56;100.00;61375.16;5047533;28;20063;-29
2022/04/29 11:24:52;;;;;;;6.47;1.95;;;;;;;-148.56;100.00;61375.16;5049391;28;20592;-29
2022/04/29 11:27:25;;;;;;;7.40;2.15;;;;;;;-148.56;100.00;61375.16;5029406;28;20078;-30
2022/04/29 11:29:51;;;;;;;5.10;2.20;;;;;;;-148.56;100.00;61375.16;5044685;28;20029;-30
2022/04/29 11:32:22;;;;;;;8.38;2.40;;;;;;;-148.56;100.00;61375.16;5016367;28;20059;-29
2022/04/29 11:34:51;;;;;;;5.20;2.00;;;;;;;-148.56;100.00;61375.16;5044472;28;20111;-30
2022/04/29 11:37:24;;;;;;;4.20;1.80;;;;;;;-148.56;100.00;61375.16;5047296;28;20042;-31
2022/04/29 11:39:50;;;;;;;6.47;2.05;;;;;;;-148.56;100.00;61375.16;5042953;28;20064;-30
2022/04/29 11:42:19;;;;;;;5.50;2.17;;;;;;;-148.56;100.00;61375.16;5049969;28;20471;-30
2022/04/29 11:44:45;;;;;;;4.63;2.33;;;;;;;-148.56;100.00;61375.16;5043719;28;20059;-30
2022/04/29 11:47:11;;;;;;;6.80;2.10;;;;;;;-148.56;100.00;61375.16;5049308;28;20111;-30